Time;durP1;ratioP1;P1;durP2;ratioP2;P2;SDS_P1;SDS_P2;PMS_P1;PMS_P2;Temp;Humidity;BMP_temperature;BMP_pressure;BME280_temperature;BME280_humidity;BME280_pressure;Samples;Min_cycle;Max_cycle;Signal;HPM_P1;HPM_P2
2021/12/24 00:00:20;;;;;;;;;;;7.30;99.90;;;;;;5032064;28;20002;-73
2021/12/24 00:02:46;;;;;;;;;;;7.30;99.90;;;;;;5032345;28;19920;-72
2021/12/24 00:05:12;;;;;;;;;;;7.30;99.90;;;;;;5031869;28;19913;-74
2021/12/24 00:07:38;;;;;;;;;;;7.30;99.90;;;;;;5030946;28;20009;-73
2021/12/24 00:10:06;;;;;;;;;;;7.30;99.90;;;;;;5030987;28;20303;-72
2021/12/24 00:12:34;;;;;;;;;;;7.30;99.90;;;;;;5031737;28;19956;-73
2021/12/24 00:15:08;;;;;;;;;;;7.30;99.90;;;;;;5032116;28;20004;-74
2021/12/24 00:17:36;;;;;;;;;;;7.30;99.90;;;;;;5030528;28;19932;-72
2021/12/24 00:20:28;;;;;;;;;;;7.30;99.90;;;;;;5031618;28;19957;-73
2021/12/24 00:36:17;;;;;;;;;;;7.30;99.90;;;;;;5032306;28;19952;-72
2021/12/24 00:38:42;;;;;;;;;;;7.30;99.90;;;;;;5032271;28;19952;-73
2021/12/24 00:41:08;;;;;;;;;;;7.30;99.90;;;;;;5031715;28;19917;-73
2021/12/24 00:43:33;;;;;;;;;;;7.40;99.90;;;;;;5031363;28;19924;-73
2021/12/24 00:45:59;;;;;;;;;;;7.40;99.90;;;;;;5031708;28;19913;-73
2021/12/24 00:48:34;;;;;;;;;;;7.40;99.90;;;;;;5031668;28;19924;-72
2021/12/24 00:56:02;;;;;;;;;;;7.40;99.90;;;;;;5033244;28;20016;-72
2021/12/24 00:58:28;;;;;;;;;;;7.40;99.90;;;;;;5033954;28;20395;-73
2021/12/24 01:00:54;;;;;;;;;;;7.40;99.90;;;;;;5034106;28;19992;-74
2021/12/24 01:03:19;;;;;;;;;;;7.40;99.90;;;;;;5035186;28;19920;-72
2021/12/24 01:05:45;;;;;;;;;;;7.40;99.90;;;;;;5035398;28;20295;-72
2021/12/24 01:08:11;;;;;;;;;;;7.40;99.90;;;;;;5034229;28;19982;-73
2021/12/24 01:10:42;;;;;;;;;;;7.50;99.90;;;;;;5033903;28;19924;-73
2021/12/24 01:13:08;;;;;;;;;;;7.50;99.90;;;;;;5033816;28;19967;-73
2021/12/24 01:15:37;;;;;;;;;;;7.50;99.90;;;;;;5033929;28;19921;-72
2021/12/24 01:23:55;;;;;;;;;;;7.60;99.90;;;;;;5034652;28;20393;-73
2021/12/24 01:26:52;;;;;;;;;;;7.50;99.90;;;;;;5034763;28;19928;-72
2021/12/24 01:40:19;;;;;;;;;;;7.60;99.90;;;;;;5034405;28;20262;-73
2021/12/24 01:42:47;;;;;;;;;;;7.70;99.90;;;;;;5033427;28;19917;-73
2021/12/24 01:45:21;;;;;;;;;;;7.70;99.90;;;;;;5033310;28;19916;-72
2021/12/24 01:47:47;;;;;;;;;;;7.70;99.90;;;;;;5033772;28;19916;-72
2021/12/24 01:50:14;;;;;;;;;;;7.70;99.90;;;;;;5033068;28;20407;-71
2021/12/24 01:52:40;;;;;;;;;;;7.70;99.90;;;;;;5033165;28;19975;-74
2021/12/24 01:55:06;;;;;;;;;;;7.80;99.90;;;;;;5032945;28;19921;-73
2021/12/24 01:57:32;;;;;;;;;;;7.80;99.90;;;;;;5034122;28;20311;-72
2021/12/24 01:59:58;;;;;;;;;;;7.80;99.90;;;;;;5034544;28;20368;-73
2021/12/24 02:02:24;;;;;;;;;;;7.80;99.90;;;;;;5033822;28;20017;-74
2021/12/24 02:04:49;;;;;;;;;;;7.80;99.90;;;;;;5033925;28;20007;-74
2021/12/24 02:07:15;;;;;;;;;;;7.80;99.90;;;;;;5031914;28;20331;-73
2021/12/24 02:09:40;;;;;;;;;;;7.90;99.90;;;;;;5032716;28;19917;-74
2021/12/24 02:12:09;;;;;;;;;;;7.90;99.90;;;;;;5034262;28;19908;-72
2021/12/24 02:14:37;;;;;;;;;;;7.90;99.90;;;;;;5033955;28;19917;-73
2021/12/24 02:31:06;;;;;;;;;;;8.00;99.90;;;;;;5033902;28;19971;-72
2021/12/24 02:33:32;;;;;;;;;;;8.00;99.90;;;;;;5033675;28;19916;-73
2021/12/24 02:35:58;;;;;;;;;;;8.10;99.90;;;;;;5024697;28;19917;-73
2021/12/24 02:38:23;;;;;;;;;;;8.10;99.90;;;;;;5013965;28;19914;-74
2021/12/24 02:40:49;;;;;;;;;;;8.10;99.90;;;;;;5012519;28;19923;-73
2021/12/24 02:43:18;;;;;;;;;;;8.10;99.90;;;;;;5012222;28;20602;-74
2021/12/24 02:45:46;;;;;;;;;;;8.10;99.90;;;;;;5012385;28;19979;-74
2021/12/24 02:48:47;;;;;;;;;;;8.10;99.90;;;;;;5013883;28;19943;-73
2021/12/24 02:54:00;;;;;;;;;;;8.10;99.90;;;;;;5013234;28;20448;-72
2021/12/24 02:56:32;;;;;;;;;;;8.10;99.90;;;;;;5013164;28;19917;-74
2021/12/24 02:58:59;;;;;;;;;;;8.10;99.90;;;;;;5013252;28;20393;-73
2021/12/24 03:01:26;;;;;;;;;;;8.10;99.90;;;;;;5013359;28;19914;-73
2021/12/24 03:03:52;;;;;;;;;;;8.20;99.90;;;;;;5013134;28;19937;-72
2021/12/24 03:06:18;;;;;;;;;;;8.10;99.90;;;;;;5013011;28;20014;-72
2021/12/24 03:08:44;;;;;;;;;;;8.20;99.90;;;;;;5012449;28;19913;-72
2021/12/24 03:11:10;;;;;;;;;;;8.20;99.90;;;;;;5012093;28;19933;-73
2021/12/24 03:13:36;;;;;;;;;;;8.20;99.90;;;;;;5012764;28;19953;-73
2021/12/24 03:16:02;;;;;;;;;;;8.20;99.90;;;;;;5012845;28;19948;-73
2021/12/24 03:18:30;;;;;;;;;;;8.20;99.90;;;;;;5012868;28;20251;-73
2021/12/24 03:21:14;;;;;;;;;;;8.30;99.90;;;;;;5013249;28;20001;-74
2021/12/24 03:23:43;;;;;;;;;;;8.30;99.90;;;;;;5013197;28;19921;-73
2021/12/24 03:26:11;;;;;;;;;;;8.40;99.90;;;;;;5011881;28;19917;-74
2021/12/24 03:28:36;;;;;;;;;;;8.30;99.90;;;;;;5012593;28;20387;-73
2021/12/24 03:31:03;;;;;;;;;;;8.30;99.90;;;;;;5011499;28;19925;-72
2021/12/24 03:33:29;;;;;;;;;;;8.30;99.90;;;;;;5013120;28;19914;-74
2021/12/24 03:35:54;;;;;;;;;;;8.40;99.90;;;;;;5013089;28;20331;-72
2021/12/24 03:38:20;;;;;;;;;;;8.40;99.90;;;;;;5013575;28;19929;-74
2021/12/24 03:40:45;;;;;;;;;;;8.40;99.90;;;;;;5012824;28;19917;-73
2021/12/24 03:43:11;;;;;;;;;;;8.40;99.90;;;;;;5012637;28;19914;-72
2021/12/24 03:45:45;;;;;;;;;;;8.40;99.90;;;;;;5012612;28;19991;-73
2021/12/24 03:48:19;;;;;;;;;;;8.30;99.90;;;;;;5013352;28;19913;-72
2021/12/24 03:51:02;;;;;;;;;;;8.30;99.90;;;;;;5012621;28;20364;-74
2021/12/24 03:56:32;;;;;;;;;;;8.40;99.90;;;;;;5029900;28;19917;-72
2021/12/24 03:58:58;;;;;;;;;;;8.40;99.90;;;;;;5029874;28;19975;-73
2021/12/24 04:01:24;;;;;;;;;;;8.40;99.90;;;;;;5021801;28;20251;-73
2021/12/24 04:03:49;;;;;;;;;;;8.40;99.90;;;;;;5012358;28;19955;-74
2021/12/24 04:06:15;;;;;;;;;;;8.40;99.90;;;;;;5012263;28;19923;-74
2021/12/24 04:08:40;;;;;;;;;;;8.50;99.90;;;;;;5012530;28;20375;-74
2021/12/24 04:11:06;;;;;;;;;;;8.50;99.90;;;;;;5012527;28;20229;-74
2021/12/24 04:13:32;;;;;;;;;;;8.50;99.90;;;;;;5012196;28;19949;-74
2021/12/24 04:15:57;;;;;;;;;;;8.50;99.90;;;;;;5012212;28;19921;-74
2021/12/24 04:26:23;;;;;;;;;;;8.60;99.90;;;;;;5011930;28;19924;-74
2021/12/24 04:28:49;;;;;;;;;;;8.60;99.90;;;;;;5011872;28;19914;-74
2021/12/24 04:31:15;;;;;;;;;;;8.60;99.90;;;;;;5014024;28;20115;-73
2021/12/24 04:33:46;;;;;;;;;;;8.60;99.90;;;;;;5015800;28;19945;-74
2021/12/24 04:36:45;;;;;;;;;;;8.60;99.90;;;;;;5015045;28;19925;-73
2021/12/24 04:52:57;;;;;;;;;;;8.80;99.90;;;;;;5015715;28;19952;-75
2021/12/24 05:03:38;;;;;;;;;;;8.80;99.90;;;;;;5015783;28;20060;-74
2021/12/24 05:08:40;;;;;;;;;;;8.90;99.90;;;;;;5015578;28;19913;-74
2021/12/24 05:11:10;;;;;;;;;;;8.90;99.90;;;;;;5014024;28;20016;-74
2021/12/24 05:13:36;;;;;;;;;;;8.90;99.90;;;;;;5015152;28;19917;-74
2021/12/24 05:16:12;;;;;;;;;;;9.00;99.90;;;;;;5013895;28;19924;-74
2021/12/24 05:19:05;;;;;;;;;;;8.90;99.90;;;;;;5015566;28;19924;-74
2021/12/24 05:21:33;;;;;;;;;;;9.00;99.90;;;;;;5015002;28;19921;-74
2021/12/24 05:24:01;;;;;;;;;;;9.00;99.90;;;;;;5015406;28;20005;-75
2021/12/24 05:26:27;;;;;;;;;;;9.00;99.90;;;;;;5014750;28;20005;-74
2021/12/24 05:28:52;;;;;;;;;;;9.00;99.90;;;;;;5015048;28;20039;-74
2021/12/24 05:31:21;;;;;;;;;;;9.00;99.90;;;;;;5014614;28;19936;-73
2021/12/24 05:33:46;;;;;;;;;;;9.10;99.90;;;;;;5014111;28;20052;-74
2021/12/24 05:36:11;;;;;;;;;;;9.10;99.90;;;;;;5015473;28;20024;-75
2021/12/24 05:38:37;;;;;;;;;;;9.10;99.90;;;;;;5013990;28;19918;-75
2021/12/24 05:41:03;;;;;;;;;;;9.10;99.90;;;;;;5014617;28;19914;-74
2021/12/24 05:43:28;;;;;;;;;;;9.10;99.90;;;;;;5014689;28;19983;-74
2021/12/24 05:45:54;;;;;;;;;;;9.10;99.90;;;;;;5014600;28;19913;-74
2021/12/24 05:48:20;;;;;;;;;;;9.10;99.90;;;;;;5014706;28;20047;-75
2021/12/24 05:50:45;;;;;;;;;;;9.20;99.90;;;;;;5014958;28;20243;-73
2021/12/24 05:53:11;;;;;;;;;;;9.20;99.90;;;;;;5013698;28;19978;-74
2021/12/24 05:55:37;;;;;;;;;;;9.20;99.90;;;;;;5014367;28;19926;-74
2021/12/24 05:58:07;;;;;;;;;;;9.20;99.90;;;;;;5014259;28;19914;-74
2021/12/24 06:00:33;;;;;;;;;;;9.20;99.90;;;;;;5013551;28;20211;-74
2021/12/24 06:02:59;;;;;;;;;;;9.20;99.90;;;;;;5013494;28;19914;-74
2021/12/24 06:05:24;;;;;;;;;;;9.20;99.90;;;;;;5014271;28;19914;-74
2021/12/24 06:07:50;;;;;;;;;;;9.20;99.90;;;;;;5014315;28;19917;-75
2021/12/24 06:10:15;;;;;;;;;;;9.20;99.90;;;;;;5013170;28;19917;-75
2021/12/24 06:12:41;;;;;;;;;;;9.30;99.90;;;;;;5014138;28;19941;-74
2021/12/24 06:15:08;;;;;;;;;;;9.30;99.90;;;;;;5014283;28;20110;-75
2021/12/24 06:17:36;;;;;;;;;;;9.30;99.90;;;;;;5012838;28;19914;-75
2021/12/24 06:20:03;;;;;;;;;;;9.30;99.90;;;;;;5014027;28;19914;-75
2021/12/24 06:22:28;;;;;;;;;;;9.30;99.90;;;;;;5013885;28;20412;-74
2021/12/24 06:24:54;;;;;;;;;;;9.30;99.90;;;;;;5013879;28;19961;-75
2021/12/24 06:27:19;;;;;;;;;;;9.30;99.90;;;;;;5012814;28;19909;-76
2021/12/24 06:29:45;;;;;;;;;;;9.30;99.90;;;;;;5014357;28;19906;-76
2021/12/24 06:32:10;;;;;;;;;;;9.40;99.90;;;;;;5013661;28;19929;-76
2021/12/24 06:34:36;;;;;;;;;;;9.40;99.90;;;;;;5012682;28;19918;-74
2021/12/24 06:37:02;;;;;;;;;;;9.40;99.90;;;;;;5012535;28;20325;-75
2021/12/24 06:39:27;;;;;;;;;;;9.40;99.90;;;;;;5013731;28;19921;-74
2021/12/24 06:41:54;;;;;;;;;;;9.40;99.90;;;;;;5014143;28;19909;-75
2021/12/24 06:44:20;;;;;;;;;;;9.50;99.90;;;;;;5013723;28;20005;-74
2021/12/24 06:46:46;;;;;;;;;;;9.50;99.90;;;;;;5012473;28;20266;-74
2021/12/24 06:49:12;;;;;;;;;;;9.50;99.90;;;;;;5013480;28;20004;-75
2021/12/24 06:51:37;;;;;;;;;;;9.50;99.90;;;;;;5013629;28;19914;-75
2021/12/24 06:54:04;;;;;;;;;;;9.50;99.90;;;;;;5013325;28;19991;-75
2021/12/24 06:56:30;;;;;;;;;;;9.50;99.90;;;;;;5011989;28;19917;-75
2021/12/24 06:58:56;;;;;;;;;;;9.60;99.90;;;;;;5013434;28;19983;-75
2021/12/24 07:01:21;;;;;;;;;;;9.50;99.90;;;;;;5013326;28;20004;-75
2021/12/24 07:03:47;;;;;;;;;;;9.60;99.90;;;;;;5013166;28;20013;-75
2021/12/24 07:06:13;;;;;;;;;;;9.60;99.90;;;;;;5013162;28;19909;-74
2021/12/24 07:08:38;;;;;;;;;;;9.60;99.90;;;;;;5013532;28;20016;-75
2021/12/24 07:11:04;;;;;;;;;;;9.60;99.90;;;;;;5013161;28;19920;-75
2021/12/24 07:13:30;;;;;;;;;;;9.60;99.90;;;;;;5012935;28;19980;-75
2021/12/24 07:15:55;;;;;;;;;;;9.70;99.90;;;;;;5012954;28;20359;-74
2021/12/24 07:18:21;;;;;;;;;;;9.70;99.90;;;;;;5012968;28;19936;-75
2021/12/24 07:20:46;;;;;;;;;;;9.70;99.90;;;;;;5013522;28;19905;-75
2021/12/24 07:23:12;;;;;;;;;;;9.70;99.90;;;;;;5012948;28;20261;-75
2021/12/24 07:25:37;;;;;;;;;;;9.80;99.90;;;;;;5012917;28;19917;-74
2021/12/24 07:28:03;;;;;;;;;;;9.70;99.90;;;;;;5011835;28;19914;-75
2021/12/24 07:30:29;;;;;;;;;;;9.70;99.90;;;;;;5012792;28;20320;-76
2021/12/24 07:32:55;;;;;;;;;;;9.70;99.90;;;;;;5013662;28;19920;-74
2021/12/24 07:35:21;;;;;;;;;;;9.80;99.90;;;;;;5012826;28;19929;-74
2021/12/24 07:37:46;;;;;;;;;;;9.70;99.90;;;;;;5011808;28;19913;-74
2021/12/24 07:40:15;;;;;;;;;;;9.70;99.90;;;;;;5012784;28;19975;-73
2021/12/24 07:42:40;;;;;;;;;;;9.80;99.90;;;;;;5011332;28;20315;-75
2021/12/24 07:45:08;;;;;;;;;;;9.70;99.90;;;;;;5013092;28;20371;-76
2021/12/24 07:47:38;;;;;;;;;;;9.80;99.90;;;;;;5012563;28;19992;-75
2021/12/24 07:50:17;;;;;;;;;;;9.80;99.90;;;;;;5012618;28;19941;-75
2021/12/24 07:52:43;;;;;;;;;;;9.80;99.90;;;;;;5012760;28;19996;-75
2021/12/24 07:55:09;;;;;;;;;;;9.80;99.90;;;;;;5012341;28;20538;-75
2021/12/24 07:57:35;;;;;;;;;;;9.80;99.90;;;;;;5011176;28;19914;-74
2021/12/24 08:00:00;;;;;;;;;;;9.80;99.90;;;;;;5011758;28;19913;-74
2021/12/24 08:02:27;;;;;;;;;;;9.80;99.90;;;;;;5011226;28;20240;-74
2021/12/24 08:04:53;;;;;;;;;;;9.80;99.90;;;;;;5011364;28;19913;-74
2021/12/24 08:07:20;;;;;;;;;;;9.80;99.90;;;;;;5011075;28;19914;-75
2021/12/24 08:09:47;;;;;;;;;;;9.80;99.90;;;;;;5012022;28;19917;-74
2021/12/24 08:12:12;;;;;;;;;;;9.80;99.90;;;;;;5012616;28;19920;-74
2021/12/24 08:14:38;;;;;;;;;;;9.70;99.90;;;;;;5010984;28;19921;-76
2021/12/24 08:17:04;;;;;;;;;;;9.80;99.90;;;;;;5011869;28;20009;-74
2021/12/24 08:19:29;;;;;;;;;;;9.80;99.90;;;;;;5011067;28;20326;-74
2021/12/24 08:21:55;;;;;;;;;;;9.80;99.90;;;;;;5012278;28;19971;-74
2021/12/24 08:24:21;;;;;;;;;;;9.80;99.90;;;;;;5012011;28;19917;-74
2021/12/24 08:26:46;;;;;;;;;;;9.80;99.90;;;;;;5012606;28;19901;-74
2021/12/24 08:29:12;;;;;;;;;;;9.80;99.90;;;;;;5011963;28;19956;-75
2021/12/24 08:31:37;;;;;;;;;;;9.80;99.90;;;;;;5011801;28;20271;-74
2021/12/24 08:34:04;;;;;;;;;;;9.80;99.90;;;;;;5010992;28;19914;-75
2021/12/24 08:36:29;;;;;;;;;;;9.80;99.90;;;;;;5011973;28;19924;-75
2021/12/24 08:38:55;;;;;;;;;;;9.80;99.90;;;;;;5012380;28;19910;-75
2021/12/24 08:41:21;;;;;;;;;;;9.80;99.90;;;;;;5010620;28;19918;-75
2021/12/24 08:43:47;;;;;;;;;;;9.90;99.90;;;;;;5011944;28;20374;-75
2021/12/24 08:46:12;;;;;;;;;;;9.90;99.90;;;;;;5011542;28;19958;-74
2021/12/24 08:48:38;;;;;;;;;;;9.90;99.90;;;;;;5011678;28;19925;-74
2021/12/24 08:51:03;;;;;;;;;;;9.90;99.90;;;;;;5012038;28;19919;-74
2021/12/24 08:53:29;;;;;;;;;;;9.90;99.90;;;;;;5011534;28;19948;-75
2021/12/24 08:55:57;;;;;;;;;;;9.90;99.90;;;;;;5011448;28;20005;-74
2021/12/24 08:58:23;;;;;;;;;;;9.90;99.90;;;;;;5011573;28;19920;-75
2021/12/24 09:00:48;;;;;;;;;;;9.90;99.90;;;;;;5011406;28;19918;-74
2021/12/24 09:03:14;;;;;;;;;;;9.90;99.90;;;;;;5011631;28;19953;-74
2021/12/24 09:05:39;;;;;;;;;;;10.00;99.90;;;;;;5010841;28;19956;-75
2021/12/24 09:08:05;;;;;;;;;;;10.00;99.90;;;;;;5011441;28;19956;-75
2021/12/24 09:10:30;;;;;;;;;;;9.90;99.90;;;;;;5010602;28;20005;-74
2021/12/24 09:12:56;;;;;;;;;;;9.90;99.90;;;;;;5011559;28;19981;-75
2021/12/24 09:15:27;;;;;;;;;;;9.90;99.90;;;;;;5010693;28;19924;-75
2021/12/24 09:17:53;;;;;;;;;;;9.90;99.90;;;;;;5015114;28;19988;-74
2021/12/24 09:20:24;;;;;;;;;;;10.00;99.90;;;;;;5014883;28;20020;-75
2021/12/24 09:22:50;;;;;;;;;;;10.00;99.90;;;;;;5013733;28;19918;-75
2021/12/24 09:25:16;;;;;;;;;;;10.00;99.90;;;;;;5013961;28;19971;-75
2021/12/24 09:27:42;;;;;;;;;;;10.00;99.90;;;;;;5014981;28;19996;-75
2021/12/24 09:30:08;;;;;;;;;;;10.10;99.90;;;;;;5015664;28;20254;-74
2021/12/24 09:32:34;;;;;;;;;;;10.10;99.90;;;;;;5014602;28;19925;-75
2021/12/24 09:34:59;;;;;;;;;;;10.00;99.90;;;;;;5014260;28;19918;-74
2021/12/24 09:37:25;;;;;;;;;;;10.10;99.90;;;;;;5014589;28;20339;-74
2021/12/24 09:39:50;;;;;;;;;;;10.10;99.90;;;;;;5013544;28;19949;-75
2021/12/24 09:42:16;;;;;;;;;;;10.10;99.90;;;;;;5013724;28;19910;-75
2021/12/24 09:44:41;;;;;;;;;;;10.10;99.90;;;;;;5015091;28;20342;-75
2021/12/24 09:47:07;;;;;;;;;;;10.10;99.90;;;;;;5014428;28;19913;-75
2021/12/24 09:49:33;;;;;;;;;;;10.10;99.90;;;;;;5013417;28;20000;-75
2021/12/24 09:51:59;;;;;;;;;;;10.10;99.90;;;;;;5013108;28;19936;-75
2021/12/24 09:54:25;;;;;;;;;;;10.10;99.90;;;;;;5013292;28;20637;-74
2021/12/24 09:56:55;;;;;;;;;;;10.10;99.90;;;;;;5015075;28;19909;-75
2021/12/24 09:59:21;;;;;;;;;;;10.20;99.90;;;;;;5013603;28;19918;-75
2021/12/24 10:01:57;;;;;;;;;;;10.20;99.90;;;;;;5013605;28;19923;-75
2021/12/24 10:04:25;;;;;;;;;;;10.20;99.90;;;;;;5014672;28;19928;-75
2021/12/24 10:06:59;;;;;;;;;;;10.20;99.90;;;;;;5013820;28;19925;-76
2021/12/24 10:09:29;;;;;;;;;;;10.30;99.90;;;;;;5013218;28;19910;-74
2021/12/24 10:12:00;;;;;;;;;;;10.20;99.90;;;;;;5015018;28;19945;-75
2021/12/24 10:14:36;;;;;;;;;;;10.30;99.90;;;;;;5014177;28;19918;-75
2021/12/24 10:17:03;;;;;;;;;;;10.30;99.90;;;;;;5014156;28;19917;-74
2021/12/24 10:19:28;;;;;;;;;;;10.30;99.90;;;;;;5014186;28;19914;-74
2021/12/24 10:21:59;;;;;;;;;;;10.30;99.90;;;;;;5013964;28;19921;-74
2021/12/24 10:24:26;;;;;;;;;;;10.30;99.90;;;;;;5013791;28;19909;-75
2021/12/24 10:26:53;;;;;;;;;;;10.30;99.90;;;;;;5013426;28;20468;-74
2021/12/24 10:29:19;;;;;;;;;;;10.30;99.90;;;;;;5011786;28;19943;-74
2021/12/24 10:31:49;;;;;;;;;;;10.30;99.90;;;;;;5013615;28;20275;-75
2021/12/24 10:34:16;;;;;;;;;;;10.30;99.90;;;;;;5012543;28;20357;-75
2021/12/24 10:36:51;;;;;;;;;;;10.30;99.90;;;;;;4993050;28;20295;-73
2021/12/24 10:39:17;;;;;;;;;;;10.30;99.90;;;;;;4992853;28;19910;-75
2021/12/24 10:41:43;;;;;;;;;;;10.30;99.90;;;;;;5013994;28;19929;-75
2021/12/24 10:44:19;;;;;;;;;;;10.30;99.90;;;;;;5012454;28;20232;-75
2021/12/24 10:46:58;;;;;;;;;;;10.30;99.90;;;;;;5012206;28;19913;-74
2021/12/24 10:49:38;;;;;;;;;;;10.40;99.90;;;;;;5013506;28;19952;-74
2021/12/24 10:54:49;;;;;;;;;;;10.40;99.90;;;;;;5013887;28;19917;-74
2021/12/24 10:57:15;;;;;;;;;;;10.40;99.90;;;;;;5013780;28;19921;-74
2021/12/24 10:59:43;;;;;;;;;;;10.40;99.90;;;;;;5013683;28;19910;-74
2021/12/24 11:02:10;;;;;;;;;;;10.40;99.90;;;;;;5013221;28;19921;-74
2021/12/24 11:04:36;;;;;;;;;;;10.40;99.90;;;;;;5013260;28;20405;-74
2021/12/24 11:07:02;;;;;;;;;;;10.40;99.90;;;;;;5013247;28;20217;-74
2021/12/24 11:09:27;;;;;;;;;;;10.40;99.90;;;;;;5013519;28;19910;-74
2021/12/24 11:11:55;;;;;;;;;;;10.40;99.90;;;;;;5013826;28;19937;-73
2021/12/24 11:14:21;;;;;;;;;;;10.40;99.90;;;;;;5011808;28;19972;-74
2021/12/24 11:16:47;;;;;;;;;;;10.40;99.90;;;;;;5013107;28;19914;-74
2021/12/24 11:19:12;;;;;;;;;;;10.40;99.90;;;;;;5013192;28;19914;-75
2021/12/24 11:21:38;;;;;;;;;;;10.40;99.90;;;;;;5011744;28;19921;-75
2021/12/24 11:24:04;;;;;;;;;;;10.40;99.90;;;;;;5012700;28;20012;-74
2021/12/24 11:26:30;;;;;;;;;;;10.40;99.90;;;;;;5012801;28;19924;-74
2021/12/24 11:28:57;;;;;;;;;;;10.40;99.90;;;;;;5012907;28;19929;-76
2021/12/24 11:31:23;;;;;;;;;;;10.40;99.90;;;;;;5012500;28;20557;-75
2021/12/24 11:33:51;;;;;;;;;;;10.40;99.90;;;;;;5011234;28;19917;-74
2021/12/24 11:36:19;;;;;;;;;;;10.40;99.90;;;;;;5011762;28;19932;-74
2021/12/24 11:38:46;;;;;;;;;;;10.40;99.90;;;;;;5012899;28;19902;-74
2021/12/24 11:41:14;;;;;;;;;;;10.40;99.90;;;;;;5012664;28;19981;-73
2021/12/24 11:43:42;;;;;;;;;;;10.40;99.90;;;;;;5012764;28;19920;-74
2021/12/24 11:46:09;;;;;;;;;;;10.20;99.90;;;;;;5012576;28;19914;-73
2021/12/24 11:48:34;;;;;;;;;;;10.00;99.90;;;;;;5012548;28;19913;-74
2021/12/24 11:51:01;;;;;;;;;;;9.90;99.90;;;;;;5013152;28;19909;-73
2021/12/24 11:53:28;;;;;;;;;;;9.60;99.90;;;;;;5012696;28;19964;-74
2021/12/24 11:55:53;;;;;;;;;;;9.60;99.90;;;;;;5012397;28;19929;-74
2021/12/24 11:58:20;;;;;;;;;;;9.50;99.90;;;;;;5012291;28;19913;-73
2021/12/24 12:00:47;;;;;;;;;;;9.40;99.90;;;;;;5012322;28;19918;-75
2021/12/24 12:03:31;;;;;;;;;;;9.30;99.90;;;;;;5011868;28;19910;-74
2021/12/24 12:05:57;;;;;;;;;;;9.30;99.90;;;;;;5012430;28;19914;-75
2021/12/24 12:08:25;;;;;;;;;;;9.20;99.90;;;;;;5011211;28;19924;-74
2021/12/24 12:11:02;;;;;;;;;;;9.20;99.90;;;;;;5012638;28;19957;-75
2021/12/24 12:13:46;;;;;;;;;;;9.20;99.90;;;;;;5012155;28;20340;-75
2021/12/24 12:16:13;;;;;;;;;;;9.20;99.90;;;;;;5012195;28;19918;-74
2021/12/24 12:19:01;;;;;;;;;;;9.20;99.90;;;;;;5012232;28;19936;-75
2021/12/24 12:21:37;;;;;;;;;;;9.10;99.90;;;;;;5012499;28;20000;-74
2021/12/24 12:26:51;;;;;;;;;;;8.90;99.90;;;;;;5020717;28;19913;-75
2021/12/24 12:29:36;;;;;;;;;;;8.80;99.90;;;;;;5011997;28;19927;-74
2021/12/24 12:32:16;;;;;;;;;;;8.80;99.90;;;;;;5011848;28;20340;-74
2021/12/24 12:34:48;;;;;;;;;;;8.80;99.90;;;;;;5012090;28;19917;-74
2021/12/24 12:37:19;;;;;;;;;;;8.70;99.90;;;;;;5011871;28;19921;-74
2021/12/24 12:39:46;;;;;;;;;;;8.60;99.90;;;;;;5012156;28;20012;-74
2021/12/24 12:42:14;;;;;;;;;;;8.40;99.90;;;;;;5012495;28;19909;-74
2021/12/24 12:44:41;;;;;;;;;;;8.30;99.90;;;;;;5012068;28;19913;-74
2021/12/24 12:47:11;;;;;;;;;;;8.10;99.90;;;;;;5011996;28;19913;-73
2021/12/24 12:49:37;;;;;;;;;;;8.20;99.90;;;;;;5012239;28;19913;-73
2021/12/24 12:52:06;;;;;;;;;;;8.20;99.90;;;;;;5012782;28;19971;-73
2021/12/24 12:54:34;;;;;;;;;;;8.20;99.90;;;;;;5014589;28;19916;-73
2021/12/24 12:57:12;;;;;;;;;;;8.00;99.90;;;;;;5016364;28;19905;-73
2021/12/24 12:59:38;;;;;;;;;;;7.90;99.90;;;;;;5014457;28;19996;-73
2021/12/24 13:02:04;;;;;;;;;;;8.00;99.90;;;;;;5015486;28;19920;-73
2021/12/24 13:04:30;;;;;;;;;;;8.00;99.90;;;;;;5015658;28;19913;-72
2021/12/24 13:06:56;;;;;;;;;;;8.00;99.90;;;;;;5015549;28;19928;-74
2021/12/24 13:09:24;;;;;;;;;;;7.90;99.90;;;;;;5015458;28;19917;-73
2021/12/24 13:11:54;;;;;;;;;;;7.80;99.90;;;;;;5015924;28;19909;-73
2021/12/24 13:14:21;;;;;;;;;;;7.90;99.90;;;;;;5015151;28;19917;-74
2021/12/24 13:16:54;;;;;;;;;;;7.80;99.90;;;;;;5015185;28;19925;-73
2021/12/24 13:19:30;;;;;;;;;;;7.80;99.90;;;;;;5014347;28;20024;-74
2021/12/24 13:24:40;;;;;;;;;;;7.80;99.90;;;;;;5015069;28;19920;-73
2021/12/24 13:27:07;;;;;;;;;;;7.80;99.90;;;;;;5014529;28;20244;-73
2021/12/24 13:29:32;;;;;;;;;;;7.70;99.90;;;;;;5015052;28;19964;-73
2021/12/24 13:31:58;;;;;;;;;;;7.80;99.90;;;;;;5014776;28;19929;-72
2021/12/24 13:34:25;;;;;;;;;;;7.80;99.90;;;;;;5014953;28;19920;-74
2021/12/24 13:36:51;;;;;;;;;;;7.60;99.90;;;;;;5014749;28;19967;-73
2021/12/24 13:39:22;;;;;;;;;;;7.60;99.90;;;;;;5013969;28;20215;-73
2021/12/24 13:41:47;;;;;;;;;;;7.60;99.90;;;;;;5015603;28;20338;-72
2021/12/24 13:44:26;;;;;;;;;;;7.50;99.90;;;;;;5014949;28;20009;-74
2021/12/24 13:47:03;;;;;;;;;;;7.50;99.90;;;;;;5014703;28;19925;-72
2021/12/24 13:54:50;;;;;;;;;;;7.40;99.90;;;;;;5014701;28;19973;-73
2021/12/24 13:57:16;;;;;;;;;;;7.30;99.90;;;;;;5013671;28;19945;-72
2021/12/24 13:59:42;;;;;;;;;;;7.30;99.90;;;;;;5013960;28;19968;-73
2021/12/24 14:02:09;;;;;;;;;;;7.30;99.90;;;;;;5014425;28;19917;-73
2021/12/24 14:04:34;;;;;;;;;;;7.30;99.90;;;;;;5013284;28;19945;-74
2021/12/24 14:07:00;;;;;;;;;;;7.30;99.90;;;;;;5014192;28;19952;-72
2021/12/24 14:09:29;;;;;;;;;;;7.30;99.90;;;;;;5014175;28;19913;-73
2021/12/24 14:11:55;;;;;;;;;;;7.20;99.90;;;;;;5014520;28;19901;-73
2021/12/24 14:14:28;;;;;;;;;;;7.20;99.90;;;;;;5013996;28;19918;-73
2021/12/24 14:18:01;;;;;;;;;;;7.10;99.90;;;;;;5014060;28;19945;-72
2021/12/24 14:20:04;;;;;;;;;;;7.10;99.90;;;;;;5016858;28;20259;-73
2021/12/24 14:22:32;;;;;;;;;;;7.10;99.90;;;;;;5012963;28;19945;-73
2021/12/24 14:25:00;;;;;;;;;;;6.90;99.90;;;;;;5013936;28;19956;-72
2021/12/24 14:27:27;;;;;;;;;;;6.80;99.90;;;;;;5012459;28;20262;-73
2021/12/24 14:29:55;;;;;;;;;;;6.90;99.90;;;;;;5014200;28;19941;-73
2021/12/24 14:32:29;;;;;;;;;;;6.80;99.90;;;;;;5013838;28;20184;-72
2021/12/24 14:34:55;;;;;;;;;;;6.80;99.90;;;;;;5013879;28;20267;-72
2021/12/24 14:37:29;;;;;;;;;;;6.80;99.90;;;;;;5014197;28;19925;-73
2021/12/24 14:39:56;;;;;;;;;;;6.70;99.90;;;;;;5013838;28;19925;-72
2021/12/24 14:42:23;;;;;;;;;;;6.70;99.90;;;;;;5013849;28;19921;-73
2021/12/24 14:44:50;;;;;;;;;;;6.70;99.90;;;;;;5014175;28;19909;-73
2021/12/24 14:47:21;;;;;;;;;;;6.60;99.90;;;;;;5012696;28;19969;-72
2021/12/24 14:49:47;;;;;;;;;;;6.50;99.80;;;;;;5013511;28;19992;-73
2021/12/24 14:52:20;;;;;;;;;;;6.40;99.90;;;;;;5013632;28;20086;-73
2021/12/24 14:55:04;;;;;;;;;;;6.40;99.90;;;;;;5013012;28;20347;-73
2021/12/24 14:57:32;;;;;;;;;;;6.40;99.90;;;;;;5012254;28;20347;-73
2021/12/24 15:00:04;;;;;;;;;;;6.30;99.90;;;;;;5013936;28;19959;-73
2021/12/24 15:02:30;;;;;;;;;;;6.30;99.90;;;;;;5013551;28;19972;-73
2021/12/24 15:04:56;;;;;;;;;;;6.30;99.90;;;;;;5013276;28;19921;-72
2021/12/24 15:07:31;;;;;;;;;;;6.30;99.90;;;;;;5013239;28;20331;-71
2021/12/24 15:10:10;;;;;;;;;;;6.30;99.80;;;;;;5013376;28;19917;-72
2021/12/24 15:12:40;;;;;;;;;;;6.20;99.80;;;;;;5013421;28;20380;-73
2021/12/24 15:15:06;;;;;;;;;;;6.30;99.80;;;;;;5013739;28;19917;-73
2021/12/24 15:17:40;;;;;;;;;;;6.20;99.70;;;;;;5013288;28;20287;-73
2021/12/24 15:20:07;;;;;;;;;;;6.20;99.80;;;;;;5013220;28;19918;-72
2021/12/24 15:22:32;;;;;;;;;;;6.20;99.80;;;;;;5012797;28;20024;-73
2021/12/24 15:24:58;;;;;;;;;;;6.10;99.70;;;;;;5012864;28;20383;-73
2021/12/24 15:27:31;;;;;;;;;;;6.00;99.80;;;;;;5011486;28;19932;-73
2021/12/24 15:29:56;;;;;;;;;;;6.00;99.80;;;;;;5013278;28;19905;-72
2021/12/24 15:32:22;;;;;;;;;;;6.10;99.90;;;;;;5012505;28;20267;-73
2021/12/24 15:34:48;;;;;;;;;;;6.10;99.70;;;;;;5011560;28;19925;-72
2021/12/24 15:37:13;;;;;;;;;;;6.10;99.70;;;;;;5011579;28;19913;-72
2021/12/24 15:39:38;;;;;;;;;;;6.00;99.60;;;;;;5012621;28;20232;-73
2021/12/24 15:42:04;;;;;;;;;;;5.90;99.50;;;;;;5012979;28;19957;-72
2021/12/24 15:44:30;;;;;;;;;;;5.80;99.70;;;;;;5012641;28;19913;-72
2021/12/24 15:46:57;;;;;;;;;;;5.80;99.70;;;;;;5012709;28;19917;-73
2021/12/24 15:49:22;;;;;;;;;;;5.80;99.70;;;;;;5012521;28;20224;-73
2021/12/24 15:51:47;;;;;;;;;;;5.80;99.90;;;;;;5012265;28;20346;-73
2021/12/24 15:54:13;;;;;;;;;;;5.80;99.60;;;;;;5012234;28;19910;-73
2021/12/24 15:56:39;;;;;;;;;;;5.80;99.60;;;;;;5011685;28;19917;-73
2021/12/24 15:59:04;;;;;;;;;;;5.80;99.60;;;;;;5012219;28;19914;-73
2021/12/24 16:01:30;;;;;;;;;;;5.80;99.70;;;;;;5012538;28;20512;-72
2021/12/24 16:03:55;;;;;;;;;;;5.70;99.60;;;;;;5012242;28;19929;-72
2021/12/24 16:06:21;;;;;;;;;;;5.70;99.70;;;;;;5011257;28;19920;-73
2021/12/24 16:08:47;;;;;;;;;;;5.70;99.80;;;;;;5012689;28;19912;-73
2021/12/24 16:11:12;;;;;;;;;;;5.70;99.70;;;;;;5012075;28;20343;-73
2021/12/24 16:13:38;;;;;;;;;;;5.70;99.70;;;;;;5012064;28;19924;-73